OYSKJ LEIB-LEXJ
Flight info
| Callsign | OYSKJ |
|---|---|
| Flight time | N/A |
| Altitude | 32000 |
| Route | EPAMA N856 UMURE N863 REBUL/N0476F330 M601 POSSY/N0468F310 M601 PPN/N0439F270 M601 BLV |
| Aircraft | CL60/M-SBDE1E2E3FGHIJ1J4J5J7M3RWXYZ/LB1V1D1 |
Departure
| Time | N/A |
|---|---|
| Airport | Ibiza Airport (LEIB) |
Arrival
| Time | 2026-05-04 18:59 |
|---|---|
| Airport | Seve Ballesteros-Santander Airport (LEXJ) |
| Time | Latitude | Longitude | Altitude | Speed | Heading |
|---|---|---|---|---|---|
| 2026-05-04 18:22 | 41.90453 | 0.57431 | 31926 ft | 455 kts | 292° |
| 2026-05-04 18:22 | 41.91905 | 0.53600 | 31921 ft | 455 kts | 292° |
| 2026-05-04 18:22 | 41.94767 | 0.46031 | 31926 ft | 455 kts | 292° |
| 2026-05-04 18:23 | 41.97615 | 0.38481 | 31932 ft | 455 kts | 292° |
| 2026-05-04 18:23 | 42.00477 | 0.30875 | 31927 ft | 455 kts | 291° |
| 2026-05-04 18:24 | 42.03337 | 0.23255 | 31919 ft | 455 kts | 292° |
| 2026-05-04 18:24 | 42.06172 | 0.15681 | 31926 ft | 456 kts | 292° |
| 2026-05-04 18:25 | 42.09020 | 0.08048 | 31927 ft | 457 kts | 292° |
| 2026-05-04 18:25 | 42.11871 | 0.00388 | 31926 ft | 457 kts | 292° |
| 2026-05-04 18:26 | 42.14714 | -0.07269 | 31927 ft | 457 kts | 292° |
| 2026-05-04 18:26 | 42.17560 | -0.14958 | 31931 ft | 458 kts | 292° |
| 2026-05-04 18:27 | 42.20405 | -0.22665 | 31929 ft | 459 kts | 292° |
| 2026-05-04 18:27 | 42.23236 | -0.30355 | 31935 ft | 458 kts | 292° |
| 2026-05-04 18:28 | 42.26064 | -0.38056 | 31935 ft | 459 kts | 292° |
| 2026-05-04 18:28 | 42.28886 | -0.45764 | 31928 ft | 459 kts | 292° |
| 2026-05-04 18:29 | 42.31702 | -0.53475 | 31933 ft | 459 kts | 292° |
| 2026-05-04 18:29 | 42.34508 | -0.61177 | 31947 ft | 460 kts | 292° |
| 2026-05-04 18:30 | 42.38747 | -0.72851 | 31956 ft | 460 kts | 292° |
| 2026-05-04 18:31 | 42.41539 | -0.80565 | 31940 ft | 460 kts | 292° |
| 2026-05-04 18:31 | 42.44338 | -0.88323 | 31956 ft | 460 kts | 292° |
| 2026-05-04 18:32 | 42.47140 | -0.96116 | 31954 ft | 461 kts | 292° |
| 2026-05-04 18:32 | 42.49939 | -1.03921 | 31957 ft | 462 kts | 292° |
| 2026-05-04 18:33 | 42.52732 | -1.11727 | 31956 ft | 461 kts | 292° |
| 2026-05-04 18:33 | 42.55519 | -1.19533 | 31969 ft | 461 kts | 292° |
| 2026-05-04 18:34 | 42.58305 | -1.27363 | 31959 ft | 461 kts | 292° |
| 2026-05-04 18:34 | 42.61086 | -1.35199 | 31971 ft | 461 kts | 292° |
| 2026-05-04 18:34 | 42.62474 | -1.39115 | 31849 ft | 460 kts | 292° |
| 2026-05-04 18:35 | 42.63841 | -1.42969 | 31436 ft | 448 kts | 292° |
| 2026-05-04 18:35 | 42.65161 | -1.46694 | 30953 ft | 437 kts | 292° |
| 2026-05-04 18:35 | 42.66462 | -1.50376 | 30486 ft | 427 kts | 292° |
| 2026-05-04 18:35 | 42.67732 | -1.53975 | 30033 ft | 417 kts | 292° |
| 2026-05-04 18:36 | 42.68969 | -1.57491 | 29570 ft | 414 kts | 292° |
| 2026-05-04 18:36 | 42.70202 | -1.61007 | 29119 ft | 413 kts | 292° |
| 2026-05-04 18:36 | 42.71435 | -1.64525 | 28660 ft | 411 kts | 292° |
| 2026-05-04 18:36 | 42.72662 | -1.68029 | 28206 ft | 408 kts | 292° |
| 2026-05-04 18:37 | 42.73992 | -1.71476 | 27749 ft | 407 kts | 297° |
| 2026-05-04 18:37 | 42.75491 | -1.74688 | 27293 ft | 405 kts | 299° |
| 2026-05-04 18:37 | 42.77018 | -1.77913 | 26841 ft | 402 kts | 299° |
| 2026-05-04 18:37 | 42.78525 | -1.81106 | 26406 ft | 400 kts | 299° |
| 2026-05-04 18:38 | 42.80002 | -1.84241 | 25965 ft | 396 kts | 299° |
| 2026-05-04 18:38 | 42.81490 | -1.87401 | 25532 ft | 394 kts | 299° |
| 2026-05-04 18:38 | 42.82965 | -1.90540 | 25093 ft | 391 kts | 299° |
| 2026-05-04 18:38 | 42.84409 | -1.93617 | 24671 ft | 388 kts | 300° |
| 2026-05-04 18:39 | 42.85863 | -1.96718 | 24236 ft | 385 kts | 299° |
| 2026-05-04 18:39 | 42.87297 | -1.99779 | 23804 ft | 382 kts | 300° |
| 2026-05-04 18:39 | 42.88717 | -2.02811 | 23386 ft | 380 kts | 300° |
| 2026-05-04 18:39 | 42.90140 | -2.05855 | 22963 ft | 378 kts | 300° |
| 2026-05-04 18:40 | 42.91543 | -2.08861 | 22550 ft | 376 kts | 300° |
| 2026-05-04 18:40 | 42.92948 | -2.11872 | 22142 ft | 374 kts | 299° |
| 2026-05-04 18:40 | 42.94337 | -2.14853 | 21735 ft | 372 kts | 299° |
| 2026-05-04 18:40 | 42.95720 | -2.17827 | 21336 ft | 370 kts | 299° |
| 2026-05-04 18:41 | 42.97081 | -2.20753 | 20939 ft | 369 kts | 299° |
| 2026-05-04 18:41 | 42.98457 | -2.23713 | 20525 ft | 367 kts | 299° |
| 2026-05-04 18:41 | 42.99837 | -2.26653 | 20129 ft | 366 kts | 300° |
| 2026-05-04 18:41 | 43.01216 | -2.29585 | 19697 ft | 364 kts | 300° |
| 2026-05-04 18:42 | 43.02573 | -2.32474 | 19300 ft | 361 kts | 300° |
| 2026-05-04 18:42 | 43.03936 | -2.35376 | 18892 ft | 360 kts | 300° |
| 2026-05-04 18:42 | 43.05283 | -2.38250 | 18497 ft | 358 kts | 300° |
| 2026-05-04 18:42 | 43.06622 | -2.41109 | 18095 ft | 357 kts | 300° |
| 2026-05-04 18:43 | 43.07970 | -2.43991 | 17710 ft | 355 kts | 300° |
| 2026-05-04 18:43 | 43.09287 | -2.46806 | 17311 ft | 353 kts | 300° |
| 2026-05-04 18:43 | 43.10606 | -2.49634 | 16925 ft | 352 kts | 300° |
| 2026-05-04 18:43 | 43.11850 | -2.52300 | 16554 ft | 349 kts | 300° |
| 2026-05-04 18:44 | 43.13153 | -2.55097 | 16181 ft | 348 kts | 300° |
| 2026-05-04 18:44 | 43.14027 | -2.56973 | 15922 ft | 346 kts | 300° |
| 2026-05-04 18:44 | 43.15752 | -2.60680 | 15414 ft | 344 kts | 300° |
| 2026-05-04 18:44 | 43.17030 | -2.63430 | 15021 ft | 341 kts | 300° |
| 2026-05-04 18:45 | 43.18300 | -2.66166 | 14663 ft | 340 kts | 300° |
| 2026-05-04 18:45 | 43.19522 | -2.68798 | 14302 ft | 337 kts | 300° |
| 2026-05-04 18:45 | 43.20763 | -2.71477 | 13942 ft | 336 kts | 300° |
| 2026-05-04 18:45 | 43.22012 | -2.74174 | 13563 ft | 334 kts | 300° |
| 2026-05-04 18:46 | 43.23258 | -2.76869 | 13197 ft | 333 kts | 300° |
| 2026-05-04 18:46 | 43.24489 | -2.79531 | 12831 ft | 330 kts | 300° |
| 2026-05-04 18:46 | 43.25721 | -2.82198 | 12471 ft | 329 kts | 300° |
| 2026-05-04 18:46 | 43.26936 | -2.84832 | 12105 ft | 324 kts | 300° |
| 2026-05-04 18:47 | 43.28130 | -2.87423 | 11747 ft | 319 kts | 300° |
| 2026-05-04 18:47 | 43.29311 | -2.89988 | 11398 ft | 311 kts | 300° |
| 2026-05-04 18:47 | 43.30182 | -2.92617 | 11065 ft | 300 kts | 283° |
| 2026-05-04 18:47 | 43.30352 | -2.95439 | 10718 ft | 291 kts | 267° |
| 2026-05-04 18:48 | 43.30274 | -2.98172 | 10389 ft | 283 kts | 267° |
| 2026-05-04 18:48 | 43.30204 | -3.00843 | 10065 ft | 278 kts | 267° |
| 2026-05-04 18:48 | 43.30133 | -3.03473 | 9785 ft | 275 kts | 267° |
| 2026-05-04 18:48 | 43.30061 | -3.06090 | 9477 ft | 276 kts | 268° |
| 2026-05-04 18:49 | 43.29989 | -3.08713 | 9162 ft | 274 kts | 268° |
| 2026-05-04 18:49 | 43.29915 | -3.11328 | 8826 ft | 274 kts | 268° |
| 2026-05-04 18:49 | 43.29840 | -3.13945 | 8546 ft | 272 kts | 268° |
| 2026-05-04 18:49 | 43.29765 | -3.16540 | 8234 ft | 272 kts | 268° |
| 2026-05-04 18:50 | 43.29690 | -3.19108 | 7932 ft | 272 kts | 268° |
| 2026-05-04 18:50 | 43.29613 | -3.21712 | 7639 ft | 271 kts | 268° |
| 2026-05-04 18:50 | 43.29537 | -3.24281 | 7347 ft | 271 kts | 269° |
| 2026-05-04 18:50 | 43.29459 | -3.26861 | 7034 ft | 271 kts | 269° |
| 2026-05-04 18:51 | 43.29380 | -3.29461 | 6735 ft | 270 kts | 269° |
| 2026-05-04 18:51 | 43.29406 | -3.31998 | 6450 ft | 269 kts | 282° |
| 2026-05-04 18:51 | 43.29985 | -3.34432 | 6129 ft | 267 kts | 292° |
| 2026-05-04 18:51 | 43.30619 | -3.36824 | 5909 ft | 266 kts | 290° |
| 2026-05-04 18:52 | 43.31197 | -3.39220 | 5745 ft | 265 kts | 291° |
| 2026-05-04 18:52 | 43.31808 | -3.41559 | 5601 ft | 253 kts | 291° |
| 2026-05-04 18:52 | 43.32402 | -3.43778 | 5476 ft | 239 kts | 292° |
| 2026-05-04 18:52 | 43.32976 | -3.45896 | 5205 ft | 233 kts | 292° |
| 2026-05-04 18:53 | 43.33532 | -3.47947 | 4941 ft | 228 kts | 292° |
| 2026-05-04 18:53 | 43.34081 | -3.49971 | 4637 ft | 225 kts | 292° |
| 2026-05-04 18:53 | 43.34626 | -3.51979 | 4339 ft | 221 kts | 292° |
| 2026-05-04 18:53 | 43.35153 | -3.53924 | 4060 ft | 214 kts | 292° |
| 2026-05-04 18:54 | 43.35655 | -3.55782 | 3777 ft | 201 kts | 293° |
| 2026-05-04 18:54 | 43.36126 | -3.57525 | 3524 ft | 189 kts | 293° |
| 2026-05-04 18:54 | 43.36578 | -3.59197 | 3269 ft | 183 kts | 293° |
| 2026-05-04 18:54 | 43.37022 | -3.60839 | 3022 ft | 183 kts | 293° |
| 2026-05-04 18:55 | 43.37462 | -3.62465 | 2779 ft | 182 kts | 293° |
| 2026-05-04 18:55 | 43.38329 | -3.65680 | 2280 ft | 168 kts | 292° |
| 2026-05-04 18:55 | 43.38705 | -3.67080 | 2100 ft | 164 kts | 292° |
| 2026-05-04 18:56 | 43.39093 | -3.68522 | 1886 ft | 157 kts | 292° |
| 2026-05-04 18:56 | 43.39435 | -3.69801 | 1755 ft | 129 kts | 292° |
| 2026-05-04 18:56 | 43.39737 | -3.70929 | 1537 ft | 124 kts | 292° |
| 2026-05-04 18:56 | 43.40030 | -3.72012 | 1357 ft | 118 kts | 291° |
| 2026-05-04 18:57 | 43.40315 | -3.73064 | 1200 ft | 117 kts | 292° |
| 2026-05-04 18:57 | 43.40585 | -3.74060 | 1054 ft | 116 kts | 291° |
| 2026-05-04 18:57 | 43.40868 | -3.75101 | 888 ft | 116 kts | 291° |
| 2026-05-04 18:57 | 43.41142 | -3.76143 | 729 ft | 116 kts | 289° |
| 2026-05-04 18:58 | 43.41410 | -3.77184 | 564 ft | 115 kts | 292° |
| 2026-05-04 18:58 | 43.41700 | -3.78216 | 409 ft | 115 kts | 289° |
| 2026-05-04 18:58 | 43.41977 | -3.79255 | 252 ft | 115 kts | 289° |
| 2026-05-04 18:58 | 43.42247 | -3.80282 | 134 ft | 115 kts | 290° |
| 2026-05-04 18:59 | 43.42521 | -3.81302 | 17 ft | 106 kts | 287° |
| 2026-05-04 18:59 | 43.42725 | -3.82070 | 14 ft | 58 kts | 289° |
| 2026-05-04 18:59 | 43.42834 | -3.82475 | 14 ft | 40 kts | 290° |
| 2026-05-04 18:59 | 43.42906 | -3.82748 | 14 ft | 22 kts | 290° |
| 2026-05-04 19:00 | 43.42941 | -3.82890 | 14 ft | 10 kts | 281° |
| 2026-05-04 19:00 | 43.42917 | -3.83001 | 14 ft | 14 kts | 234° |
| 2026-05-04 19:00 | 43.42842 | -3.83035 | 14 ft | 11 kts | 162° |
| 2026-05-04 19:00 | 43.42789 | -3.82945 | 14 ft | 12 kts | 109° |
| 2026-05-04 19:01 | 43.42754 | -3.82809 | 14 ft | 17 kts | 110° |
| 2026-05-04 19:01 | 43.42707 | -3.82633 | 14 ft | 21 kts | 110° |
| 2026-05-04 19:01 | 43.42652 | -3.82427 | 14 ft | 21 kts | 110° |
| 2026-05-04 19:01 | 43.42617 | -3.82313 | 14 ft | 9 kts | 136° |
| 2026-05-04 19:02 | 43.42553 | -3.82315 | 14 ft | 8 kts | 201° |
| 2026-05-04 19:02 | 43.42542 | -3.82359 | 14 ft | 5 kts | 290° |
| 2026-05-04 19:02 | 43.42550 | -3.82390 | 14 ft | 0 kts | 290° |
| 2026-05-04 19:02 | 43.42552 | -3.82395 | 14 ft | 0 kts | 290° |